Airfield :
LOGIN :

Register | Disclaimer

   EN    FR    IT 

 










Legend :    VFR   Marginal VFR   IFR   Intensive IFR   Very Intensive IFR
Visi :
Ceiling :
>= 8 km
>= 3000ft
5 to 8 km
1000 to 3000 ft
1500m to 5 km
500 to 1000 ft
800 to 1500m
200 to 500 ft
< 800m
< 200 ft
Symbols :   Thunderstorms  Fog  Heavy snow  Heavy precipitations  Wind > 20 kt
SIGMETs :     Misc.  Thunderstorms  Icing  Turbulence  Mountain Waves  Volcanic Ashes







- Airport Elevation : 203 ft
- IATA code : XMJ
- Download approach charts


LFBM - Mont-De-Marsan

CURRENT METAR :
  • 221230Z AUTO 09004KT 040V130 CAVOK 18/06 Q1011 NOSIG

EXPIRED METARs :
  • 221200Z AUTO 09005KT 070V130 CAVOK 16/06 Q1011 NOSIG
  • 221130Z AUTO 09006KT CAVOK 15/06 Q1011 NOSIG
  • 221100Z AUTO 10004KT 050V130 CAVOK 13/05 Q1012 NOSIG
  • 221030Z AUTO 08005KT CAVOK 11/05 Q1012 NOSIG
  • 221000Z AUTO 08004KT 050V110 CAVOK 09/04 Q1012 NOSIG

TAF TAF LFBM
Valid from the 22 at 09:00 until the 23 at 09:00 UTC


220800Z 2209/2309 10007KT CAVOK
No reported NOTAMs for that airfield.



MET'MAP, your aeronautical weather chart ! - Copyright ORBIFLY December 2007 - Disclaimer

ORBIFLY MET'MAP TEAM :

Programming & Development : Alexandra Zaïnal
Concept & Development : Baudouin d'Aumeries
Co-Development & Prog : Marc-Olivier Méhu
Technical & hardware support : Manuel Goepfert

Contact : metmap@orbifly.com




SOURCES & CREDITS :

   NOAA